createdAt,value
2019-05-26T00:01:54.542Z,21.30
2019-05-26T00:03:56.179Z,21.32
2019-05-26T00:05:57.802Z,21.34
2019-05-26T00:07:59.435Z,21.33
2019-05-26T00:10:01.062Z,21.33
2019-05-26T00:12:02.692Z,21.33
2019-05-26T00:14:04.331Z,21.32
2019-05-26T00:16:06.024Z,21.31
2019-05-26T00:18:07.723Z,21.29
2019-05-26T00:20:09.378Z,21.27
2019-05-26T00:22:10.974Z,21.01
2019-05-26T00:24:12.609Z,21.24
2019-05-26T00:26:14.263Z,21.11
2019-05-26T00:28:15.915Z,21.23
2019-05-26T00:30:17.603Z,21.28
2019-05-26T00:32:19.230Z,21.35
2019-05-26T00:34:20.990Z,21.41
2019-05-26T00:36:22.653Z,21.46
2019-05-26T00:38:24.299Z,21.52
2019-05-26T00:40:26.043Z,21.57
2019-05-26T00:42:27.819Z,21.64
2019-05-26T00:44:29.501Z,21.66
2019-05-26T00:46:31.163Z,21.65
2019-05-26T00:48:32.862Z,21.63
2019-05-26T00:50:34.549Z,21.62
2019-05-26T00:52:36.255Z,21.60
2019-05-26T00:54:37.855Z,21.57
2019-05-26T00:56:39.558Z,21.54
2019-05-26T00:58:41.181Z,21.52
2019-05-26T01:00:42.874Z,21.49
2019-05-26T01:02:44.487Z,21.45
2019-05-26T01:04:46.197Z,21.49
2019-05-26T01:06:47.836Z,21.47
2019-05-26T01:08:49.490Z,21.46
2019-05-26T01:10:51.145Z,21.44
2019-05-26T01:12:52.807Z,21.46
2019-05-26T01:14:54.435Z,21.46
2019-05-26T01:16:56.321Z,21.49
2019-05-26T01:18:57.870Z,21.52
2019-05-26T01:20:59.567Z,21.58
2019-05-26T01:23:01.222Z,21.59
2019-05-26T01:25:02.879Z,21.58
2019-05-26T01:27:04.553Z,21.58
2019-05-26T01:29:06.205Z,21.59
2019-05-26T01:31:07.830Z,21.57
2019-05-26T01:33:09.442Z,21.56
2019-05-26T01:35:11.027Z,21.58
2019-05-26T01:37:12.681Z,21.57
2019-05-26T01:39:14.383Z,21.55
2019-05-26T01:41:16.009Z,21.53
2019-05-26T01:43:17.602Z,21.52
2019-05-26T01:45:19.293Z,21.53
2019-05-26T01:47:20.886Z,21.60
2019-05-26T01:49:22.514Z,21.63
2019-05-26T01:51:24.220Z,21.70
2019-05-26T01:53:25.846Z,21.79
2019-05-26T01:55:27.530Z,21.60
2019-05-26T01:57:29.158Z,21.91
2019-05-26T01:59:30.805Z,22.04
2019-05-26T02:01:32.528Z,22.15
2019-05-26T02:03:34.196Z,22.27
2019-05-26T02:05:35.853Z,22.26
2019-05-26T02:07:37.503Z,22.48
2019-05-26T02:09:39.087Z,22.59
2019-05-26T02:11:40.775Z,22.65
2019-05-26T02:13:42.496Z,22.78
2019-05-26T02:15:44.312Z,22.95
2019-05-26T02:17:45.969Z,22.99
2019-05-26T02:19:47.601Z,23.01
2019-05-26T02:21:49.222Z,23.03
2019-05-26T02:23:50.850Z,23.10
2019-05-26T02:25:52.450Z,23.19
2019-05-26T02:27:54.066Z,23.22
2019-05-26T02:29:55.699Z,23.27
2019-05-26T02:31:57.386Z,23.21
2019-05-26T02:33:59.062Z,23.12
2019-05-26T02:36:00.675Z,23.03
2019-05-26T02:38:02.356Z,22.99
2019-05-26T02:40:03.943Z,23.01
2019-05-26T02:42:05.583Z,22.98
2019-05-26T02:44:07.160Z,22.86
2019-05-26T02:46:08.820Z,22.85
2019-05-26T02:48:10.478Z,22.83
2019-05-26T02:50:12.177Z,22.76
2019-05-26T02:52:13.962Z,22.72
2019-05-26T02:54:15.706Z,22.64
2019-05-26T02:56:17.329Z,22.58
2019-05-26T02:58:18.982Z,22.52
2019-05-26T03:00:20.619Z,22.44
2019-05-26T03:02:22.192Z,22.42
2019-05-26T03:04:23.853Z,22.39
2019-05-26T03:06:25.545Z,22.36
2019-05-26T03:08:27.260Z,22.38
2019-05-26T03:10:28.900Z,22.36
2019-05-26T03:12:30.565Z,22.35
2019-05-26T03:14:32.247Z,22.32
2019-05-26T03:16:33.822Z,22.31
2019-05-26T03:18:35.400Z,22.32
2019-05-26T03:20:37.106Z,22.28
2019-05-26T03:22:38.798Z,22.25
2019-05-26T03:24:40.394Z,22.22
2019-05-26T03:26:42.050Z,22.05
2019-05-26T03:28:43.759Z,22.17
2019-05-26T03:30:45.411Z,22.18
2019-05-26T03:32:47.058Z,22.14
2019-05-26T03:34:48.879Z,21.84
2019-05-26T03:36:50.660Z,22.07
2019-05-26T03:38:52.338Z,22.07
2019-05-26T03:40:53.988Z,22.03
2019-05-26T03:42:55.646Z,22.01
2019-05-26T03:44:57.299Z,22.02
2019-05-26T03:46:59.022Z,22.00
2019-05-26T03:49:00.683Z,21.98
2019-05-26T03:51:02.345Z,21.97
2019-05-26T03:53:04.046Z,22.02
2019-05-26T03:55:05.719Z,22.05
2019-05-26T03:57:07.352Z,22.11
2019-05-26T03:59:09.041Z,22.15
2019-05-26T04:01:10.741Z,22.17
2019-05-26T04:03:12.383Z,22.25
2019-05-26T04:05:14.067Z,22.29
2019-05-26T04:07:15.671Z,22.35
2019-05-26T04:09:17.372Z,22.41
2019-05-26T04:11:19.111Z,22.50
2019-05-26T04:13:20.890Z,22.55
2019-05-26T04:15:22.522Z,22.58
2019-05-26T04:17:24.240Z,22.61
2019-05-26T04:19:25.901Z,22.67
2019-05-26T04:21:27.542Z,22.70
2019-05-26T04:23:29.202Z,22.81
2019-05-26T04:25:30.799Z,22.88
2019-05-26T04:27:32.484Z,22.92
2019-05-26T04:29:34.131Z,22.90
2019-05-26T04:31:35.832Z,22.90
2019-05-26T04:33:37.499Z,22.90
2019-05-26T04:35:39.135Z,22.91
2019-05-26T04:37:40.831Z,22.93
2019-05-26T04:39:42.468Z,22.73
2019-05-26T04:41:44.046Z,22.91
2019-05-26T04:43:45.823Z,22.90
2019-05-26T04:45:47.494Z,22.88
2019-05-26T04:47:49.124Z,22.88
2019-05-26T04:49:50.786Z,22.87
2019-05-26T04:51:52.436Z,22.86
2019-05-26T04:53:54.074Z,22.83
2019-05-26T04:55:55.729Z,22.82
2019-05-26T04:57:57.358Z,22.78
2019-05-26T04:59:59.018Z,22.76
2019-05-26T05:02:00.615Z,22.72
2019-05-26T05:04:02.323Z,22.73
2019-05-26T05:06:04.104Z,22.73
2019-05-26T05:08:05.765Z,22.78
2019-05-26T05:10:07.426Z,22.79
2019-05-26T05:12:09.088Z,22.80
2019-05-26T05:14:10.714Z,22.79
2019-05-26T05:16:12.478Z,22.79
2019-05-26T05:18:14.182Z,22.79
2019-05-26T05:20:15.752Z,22.79
2019-05-26T05:22:17.404Z,22.80
2019-05-26T05:24:19.031Z,22.80
2019-05-26T05:26:20.655Z,22.81
2019-05-26T05:28:22.306Z,22.82
2019-05-26T05:30:23.938Z,22.78
2019-05-26T05:32:25.626Z,22.60
2019-05-26T05:34:27.256Z,22.79
2019-05-26T05:36:28.909Z,22.77
2019-05-26T05:38:30.562Z,22.81
2019-05-26T05:40:32.254Z,22.75
2019-05-26T05:42:33.942Z,22.68
2019-05-26T05:44:35.593Z,22.51
2019-05-26T05:46:37.194Z,22.78
2019-05-26T05:48:38.774Z,22.88
2019-05-26T05:50:40.422Z,22.80
2019-05-26T05:52:42.105Z,22.73
2019-05-26T05:54:43.690Z,22.70
2019-05-26T05:56:45.325Z,22.88
2019-05-26T05:58:47.364Z,22.82
2019-05-26T06:00:48.991Z,22.79
2019-05-26T06:02:50.770Z,22.71
2019-05-26T06:04:52.444Z,22.61
2019-05-26T06:06:54.070Z,22.56
2019-05-26T06:08:55.895Z,22.57
2019-05-26T06:10:57.500Z,22.57
2019-05-26T06:12:59.114Z,22.56
2019-05-26T06:15:00.746Z,22.56
2019-05-26T06:17:02.662Z,22.53
2019-05-26T06:19:04.248Z,22.53
2019-05-26T06:21:05.938Z,22.51
2019-05-26T06:23:07.615Z,22.53
2019-05-26T06:25:09.248Z,22.54
2019-05-26T06:27:10.900Z,22.49
2019-05-26T06:29:12.636Z,22.46
2019-05-26T06:31:14.290Z,22.46
2019-05-26T06:33:15.918Z,22.42
2019-05-26T06:35:17.675Z,22.44
2019-05-26T06:37:19.246Z,22.42
2019-05-26T06:39:20.896Z,22.43
2019-05-26T06:41:33.033Z,22.43
2019-05-26T06:43:24.265Z,22.57
2019-05-26T06:45:26.014Z,22.66
2019-05-26T06:47:27.804Z,22.70
2019-05-26T06:49:29.478Z,22.70
2019-05-26T06:51:31.136Z,22.69
2019-05-26T06:53:32.786Z,22.70
2019-05-26T06:55:34.490Z,22.70
2019-05-26T06:57:36.074Z,22.73
2019-05-26T06:59:37.762Z,22.78
2019-05-26T07:01:39.362Z,22.83
2019-05-26T07:03:40.960Z,22.84
2019-05-26T07:05:42.634Z,22.83
2019-05-26T07:07:44.210Z,22.85
2019-05-26T07:09:46.525Z,22.86
2019-05-26T07:11:57.013Z,22.84
2019-05-26T07:13:49.801Z,22.83
2019-05-26T07:15:51.533Z,22.83
2019-05-26T07:17:53.413Z,22.84
2019-05-26T07:19:55.198Z,22.86
2019-05-26T07:21:57.651Z,22.87
2019-05-26T07:23:59.722Z,22.83
2019-05-26T07:26:01.306Z,22.79
2019-05-26T07:28:02.929Z,22.77
2019-05-26T07:30:04.703Z,22.78
2019-05-26T07:32:06.388Z,22.75
2019-05-26T07:34:08.040Z,22.78
2019-05-26T07:36:09.670Z,22.78
2019-05-26T07:40:12.727Z,22.77
2019-05-26T07:42:14.638Z,22.75
2019-05-26T07:44:16.878Z,22.73
2019-05-26T07:46:19.118Z,22.73
2019-05-26T07:48:20.771Z,22.72
2019-05-26T07:50:22.411Z,22.60
2019-05-26T07:52:24.236Z,22.70
2019-05-26T07:54:26.233Z,22.68
2019-05-26T07:56:27.642Z,22.58
2019-05-26T07:58:29.357Z,22.68
2019-05-26T08:00:31.447Z,22.68
2019-05-26T08:02:33.117Z,22.68
2019-05-26T08:04:34.756Z,22.67
2019-05-26T08:06:36.416Z,22.65
2019-05-26T08:08:38.418Z,22.65
2019-05-26T08:10:40.465Z,22.64
2019-05-26T08:12:42.082Z,22.64
2019-05-26T08:14:43.710Z,22.63
2019-05-26T08:16:45.337Z,22.62
2019-05-26T08:18:47.021Z,22.63
2019-05-26T08:20:48.901Z,22.64
2019-05-26T08:22:50.489Z,22.64
2019-05-26T08:24:52.144Z,22.63
2019-05-26T08:26:53.773Z,22.63
2019-05-26T08:28:55.485Z,22.62
2019-05-26T08:30:57.171Z,22.64
2019-05-26T08:32:58.795Z,22.64
2019-05-26T08:35:00.515Z,22.62
2019-05-26T08:37:02.290Z,22.65
2019-05-26T08:39:04.067Z,22.64
2019-05-26T08:41:05.786Z,22.63
2019-05-26T08:43:07.518Z,22.63
2019-05-26T08:45:09.396Z,22.63
2019-05-26T08:47:11.455Z,22.64
2019-05-26T08:49:13.064Z,22.64
2019-05-26T08:51:14.828Z,22.64
2019-05-26T08:53:16.515Z,22.63
2019-05-26T08:55:18.175Z,22.63
2019-05-26T08:57:19.825Z,22.61
2019-05-26T08:59:22.143Z,22.60
2019-05-26T09:01:23.722Z,22.61
2019-05-26T09:03:25.487Z,22.59
2019-05-26T09:05:27.127Z,22.58
2019-05-26T09:07:28.834Z,22.32
2019-05-26T09:09:30.923Z,22.57
2019-05-26T09:11:32.589Z,22.56
2019-05-26T09:13:34.227Z,22.55
2019-05-26T09:15:35.842Z,22.53
2019-05-26T09:17:37.613Z,22.52
2019-05-26T09:19:39.389Z,22.51
2019-05-26T09:21:40.995Z,22.50
2019-05-26T09:23:42.843Z,22.50
2019-05-26T09:25:46.555Z,22.49
2019-05-26T09:27:46.402Z,22.48
2019-05-26T09:29:48.078Z,22.49
2019-05-26T09:31:49.847Z,22.48
2019-05-26T09:33:51.449Z,22.47
2019-05-26T09:35:53.110Z,22.24
2019-05-26T09:37:54.868Z,22.47
2019-05-26T09:39:56.494Z,22.43
2019-05-26T09:41:58.204Z,22.43
2019-05-26T09:43:59.886Z,22.42
2019-05-26T09:46:01.669Z,22.42
2019-05-26T09:48:03.271Z,22.42
2019-05-26T09:50:05.535Z,22.41
2019-05-26T09:52:07.172Z,22.08
2019-05-26T09:54:12.516Z,22.43
2019-05-26T09:56:11.034Z,22.44
2019-05-26T09:58:13.292Z,22.44
2019-05-26T10:00:16.209Z,22.48
2019-05-26T10:02:16.947Z,22.50
2019-05-26T10:04:18.550Z,22.48
2019-05-26T10:06:20.237Z,22.44
2019-05-26T10:08:22.022Z,22.43
2019-05-26T10:10:23.752Z,22.42
2019-05-26T10:12:25.573Z,22.27
2019-05-26T10:14:27.207Z,22.37
2019-05-26T10:16:29.027Z,22.36
2019-05-26T10:18:30.761Z,22.33
2019-05-26T10:20:32.399Z,22.33
2019-05-26T10:22:34.039Z,22.31
2019-05-26T10:24:35.638Z,22.28
2019-05-26T10:26:37.246Z,22.26
2019-05-26T10:28:39.074Z,22.32
2019-05-26T10:30:40.769Z,22.34
2019-05-26T10:32:42.509Z,22.36
2019-05-26T10:34:44.295Z,22.40
2019-05-26T10:36:46.320Z,22.43
2019-05-26T10:38:47.918Z,22.43
2019-05-26T10:40:49.940Z,22.47
2019-05-26T10:42:51.588Z,22.36
2019-05-26T10:44:53.271Z,22.48
2019-05-26T10:46:54.917Z,22.52
2019-05-26T10:48:56.635Z,22.54
2019-05-26T10:50:58.621Z,22.54
2019-05-26T10:53:00.489Z,22.52
2019-05-26T10:55:02.070Z,22.50
2019-05-26T10:57:03.707Z,22.37
2019-05-26T10:59:05.330Z,22.48
2019-05-26T11:01:07.015Z,22.31
2019-05-26T11:03:09.267Z,22.43
2019-05-26T11:05:10.895Z,22.42
2019-05-26T11:07:12.621Z,22.39
2019-05-26T11:09:14.276Z,22.35
2019-05-26T11:11:15.902Z,22.34
2019-05-26T11:13:17.625Z,22.32
2019-05-26T11:15:19.314Z,22.31
2019-05-26T11:17:20.992Z,22.31
2019-05-26T11:19:22.677Z,22.30
2019-05-26T11:21:24.542Z,22.27
2019-05-26T11:23:26.543Z,22.26
2019-05-26T11:25:28.302Z,22.25
2019-05-26T11:27:29.927Z,22.24
2019-05-26T11:29:31.562Z,22.23
2019-05-26T11:31:33.332Z,22.23
2019-05-26T11:33:35.015Z,22.22
2019-05-26T11:35:36.799Z,22.18
2019-05-26T11:37:38.549Z,22.19
2019-05-26T11:39:40.178Z,22.34
2019-05-26T11:41:41.769Z,22.49
2019-05-26T11:43:43.475Z,22.72
2019-05-26T11:45:45.136Z,22.82
2019-05-26T11:47:46.818Z,22.89
2019-05-26T11:49:49.250Z,22.94
2019-05-26T11:51:51.025Z,22.94
2019-05-26T11:53:52.793Z,22.95
2019-05-26T11:56:05.289Z,22.98
2019-05-26T11:58:06.949Z,23.01
2019-05-26T12:00:09.498Z,23.06
2019-05-26T12:02:10.728Z,23.09
2019-05-26T12:04:13.058Z,23.07
2019-05-26T12:06:14.846Z,23.02
2019-05-26T12:08:16.543Z,22.98
2019-05-26T12:10:18.940Z,22.90
2019-05-26T12:12:20.578Z,22.87
2019-05-26T12:14:34.345Z,22.83
2019-05-26T12:16:24.163Z,22.79
2019-05-26T12:18:25.791Z,22.76
2019-05-26T12:20:28.125Z,22.54
2019-05-26T12:22:29.725Z,22.72
2019-05-26T12:24:31.358Z,22.70
2019-05-26T12:26:45.524Z,22.71
2019-05-26T12:28:49.422Z,22.77
2019-05-26T12:30:50.996Z,22.78
2019-05-26T12:32:52.665Z,22.56
2019-05-26T12:34:54.263Z,22.75
2019-05-26T12:36:55.918Z,22.70
2019-05-26T12:38:57.561Z,22.48
2019-05-26T12:40:59.207Z,22.66
2019-05-26T12:43:00.790Z,22.69
2019-05-26T12:45:02.395Z,22.68
2019-05-26T12:47:04.048Z,22.66
2019-05-26T12:49:06.439Z,22.64
2019-05-26T12:51:08.365Z,22.64
2019-05-26T12:53:09.946Z,22.65
2019-05-26T12:55:11.559Z,22.64
2019-05-26T12:57:13.763Z,22.54
2019-05-26T12:59:15.483Z,22.35
2019-05-26T13:01:17.729Z,22.33
2019-05-26T13:03:19.306Z,22.34
2019-05-26T13:05:20.879Z,22.33
2019-05-26T13:07:22.592Z,22.32
2019-05-26T13:09:24.469Z,22.32
2019-05-26T13:11:26.161Z,22.31
2019-05-26T13:13:28.049Z,22.29
2019-05-26T13:15:29.735Z,22.29
2019-05-26T13:17:31.575Z,22.26
2019-05-26T13:19:33.227Z,22.22
2019-05-26T13:21:35.147Z,22.22
2019-05-26T13:23:36.778Z,22.21
2019-05-26T13:25:38.446Z,22.20
2019-05-26T13:27:40.258Z,22.18
2019-05-26T13:29:42.162Z,22.17
2019-05-26T13:31:43.796Z,22.15
2019-05-26T13:33:45.390Z,22.11
2019-05-26T13:35:48.107Z,22.10
2019-05-26T13:37:49.763Z,22.09
2019-05-26T13:39:51.527Z,22.10
2019-05-26T13:41:53.543Z,22.10
2019-05-26T13:43:55.275Z,22.07
2019-05-26T13:45:57.064Z,22.05
2019-05-26T13:47:58.732Z,21.92
2019-05-26T13:50:00.367Z,22.04
2019-05-26T13:52:01.942Z,22.04
2019-05-26T13:54:03.657Z,22.03
2019-05-26T13:56:05.340Z,22.02
2019-05-26T13:58:07.101Z,22.00
2019-05-26T14:00:08.752Z,21.99
2019-05-26T14:02:10.407Z,21.98
2019-05-26T14:04:12.020Z,21.97
2019-05-26T14:06:13.813Z,21.96
2019-05-26T14:08:15.583Z,21.95
2019-05-26T14:10:17.163Z,21.94
2019-05-26T14:12:18.762Z,21.94
2019-05-26T14:14:20.432Z,21.93
2019-05-26T14:16:22.168Z,21.77
2019-05-26T14:18:23.799Z,21.89
2019-05-26T14:20:25.435Z,21.89
2019-05-26T14:22:27.043Z,21.86
2019-05-26T14:24:28.772Z,21.86
2019-05-26T14:26:30.419Z,21.83
2019-05-26T14:28:32.115Z,21.84
2019-05-26T14:30:33.782Z,21.82
2019-05-26T14:32:35.420Z,21.80
2019-05-26T14:34:37.243Z,21.79
2019-05-26T14:36:38.874Z,21.76
2019-05-26T14:38:43.481Z,21.76
2019-05-26T14:40:42.886Z,21.75
2019-05-26T14:42:44.526Z,21.74
2019-05-26T14:44:46.150Z,21.71
2019-05-26T14:46:47.732Z,21.71
2019-05-26T14:48:49.394Z,21.69
2019-05-26T14:50:51.020Z,21.70
2019-05-26T14:52:52.667Z,21.68
2019-05-26T14:54:54.261Z,21.67
2019-05-26T14:56:55.947Z,21.66
2019-05-26T14:58:57.958Z,21.66
2019-05-26T15:00:59.585Z,21.66
2019-05-26T15:03:01.210Z,21.65
2019-05-26T15:05:02.960Z,21.64
2019-05-26T15:07:04.553Z,21.63
2019-05-26T15:09:06.298Z,21.61
2019-05-26T15:11:08.083Z,21.60
2019-05-26T15:13:09.961Z,21.59
2019-05-26T15:15:11.596Z,21.58
2019-05-26T15:17:13.413Z,21.58
2019-05-26T15:19:15.010Z,21.57
2019-05-26T15:21:18.233Z,21.57
2019-05-26T15:23:18.566Z,21.56
2019-05-26T15:25:20.175Z,21.55
2019-05-26T15:27:22.189Z,21.55
2019-05-26T15:29:23.866Z,21.54
2019-05-26T15:31:25.511Z,21.54
2019-05-26T15:33:27.211Z,21.51
2019-05-26T15:35:28.814Z,21.53
2019-05-26T15:37:30.972Z,21.52
2019-05-26T15:39:32.643Z,21.51
2019-05-26T15:41:34.226Z,21.49
2019-05-26T15:43:35.853Z,21.48
2019-05-26T15:45:37.502Z,21.47
2019-05-26T15:47:39.341Z,21.47
2019-05-26T15:49:40.973Z,21.49
2019-05-26T15:51:42.673Z,21.49
2019-05-26T15:53:44.302Z,21.48
2019-05-26T15:55:45.918Z,21.47
2019-05-26T15:57:47.720Z,21.46
2019-05-26T15:59:49.422Z,21.46
2019-05-26T16:01:51.049Z,21.45
2019-05-26T16:03:52.674Z,21.45
2019-05-26T16:05:54.504Z,21.44
2019-05-26T16:07:56.182Z,21.44
2019-05-26T16:09:57.781Z,21.42
2019-05-26T16:11:59.532Z,21.41
2019-05-26T16:14:01.286Z,21.39
2019-05-26T16:16:02.810Z,21.38
2019-05-26T16:18:04.447Z,21.38
2019-05-26T16:20:06.395Z,21.36
2019-05-26T16:22:08.035Z,21.36
2019-05-26T16:24:09.783Z,21.34
2019-05-26T16:26:11.467Z,21.33
2019-05-26T16:28:13.066Z,21.31
2019-05-26T16:30:14.695Z,21.30
2019-05-26T16:32:18.775Z,21.27
2019-05-26T16:34:18.038Z,21.27
2019-05-26T16:36:21.355Z,21.63
2019-05-26T16:38:21.498Z,22.08
2019-05-26T16:40:23.175Z,22.42
2019-05-26T16:42:25.434Z,22.66
2019-05-26T16:44:27.062Z,22.69
2019-05-26T16:46:28.731Z,22.64
2019-05-26T16:48:31.056Z,22.67
2019-05-26T16:50:33.044Z,22.91
2019-05-26T16:52:34.480Z,23.08
2019-05-26T16:54:36.110Z,23.25
2019-05-26T16:56:37.894Z,23.26
2019-05-26T16:58:39.487Z,23.25
2019-05-26T17:00:41.124Z,23.08
2019-05-26T17:02:42.803Z,22.95
2019-05-26T17:04:44.498Z,22.88
2019-05-26T17:06:46.367Z,22.86
2019-05-26T17:08:48.043Z,23.08
2019-05-26T17:10:49.624Z,23.10
2019-05-26T17:12:51.388Z,22.99
2019-05-26T17:14:52.977Z,23.01
2019-05-26T17:16:54.608Z,22.97
2019-05-26T17:18:56.825Z,22.97
2019-05-26T17:20:58.769Z,22.75
2019-05-26T17:23:00.578Z,22.65
2019-05-26T17:25:02.261Z,22.68
2019-05-26T17:27:03.919Z,22.70
2019-05-26T17:29:05.692Z,22.91
2019-05-26T17:31:07.382Z,22.95
2019-05-26T17:33:09.022Z,23.01
2019-05-26T17:35:10.674Z,23.32
2019-05-26T17:37:13.010Z,23.59
2019-05-26T17:39:14.682Z,23.65
2019-05-26T17:41:16.319Z,23.57
2019-05-26T17:43:18.036Z,23.33
2019-05-26T17:45:19.710Z,23.27
2019-05-26T17:47:29.745Z,23.25
2019-05-26T17:49:23.500Z,23.29
2019-05-26T17:51:25.130Z,23.34
2019-05-26T17:53:27.014Z,23.38
2019-05-26T17:55:28.618Z,23.43
2019-05-26T17:57:30.253Z,23.42
2019-05-26T17:59:31.882Z,23.40
2019-05-26T18:01:33.559Z,23.40
2019-05-26T18:03:35.155Z,23.40
2019-05-26T18:05:37.366Z,23.43
2019-05-26T18:07:39.013Z,23.47
2019-05-26T18:09:44.662Z,22.76
2019-05-26T18:11:42.324Z,22.66
2019-05-26T18:13:46.547Z,22.93
2019-05-26T18:15:46.134Z,23.11
2019-05-26T18:17:48.436Z,23.31
2019-05-26T18:19:50.135Z,23.33
2019-05-26T18:21:51.989Z,23.33
2019-05-26T18:23:53.633Z,23.34
2019-05-26T18:25:55.337Z,23.37
2019-05-26T18:27:57.009Z,23.39
2019-05-26T18:29:58.683Z,23.38
2019-05-26T18:32:00.528Z,23.40
2019-05-26T18:34:02.133Z,23.42
2019-05-26T18:36:03.730Z,23.43
2019-05-26T18:38:05.363Z,23.48
2019-05-26T18:40:06.972Z,23.70
2019-05-26T18:42:08.585Z,23.90
2019-05-26T18:44:10.167Z,23.87
2019-05-26T18:46:11.855Z,23.96
2019-05-26T18:48:13.454Z,24.15
2019-05-26T18:50:15.082Z,24.23
2019-05-26T18:52:16.792Z,24.13
2019-05-26T18:54:18.395Z,23.64
2019-05-26T18:56:20.040Z,23.26
2019-05-26T18:58:21.710Z,23.05
2019-05-26T19:00:29.898Z,23.28
2019-05-26T19:02:25.319Z,23.45
2019-05-26T19:04:27.040Z,23.49
2019-05-26T19:06:28.708Z,23.54
2019-05-26T19:08:30.310Z,23.50
2019-05-26T19:10:31.953Z,23.51
2019-05-26T19:12:33.583Z,23.52
2019-05-26T19:14:35.238Z,23.54
2019-05-26T19:16:37.083Z,23.54
2019-05-26T19:18:38.860Z,23.56
2019-05-26T19:20:40.942Z,23.55
2019-05-26T19:22:42.638Z,23.57
2019-05-26T19:24:44.290Z,23.54
2019-05-26T19:26:45.964Z,23.59
2019-05-26T19:28:47.590Z,23.37
2019-05-26T19:30:49.854Z,23.53
2019-05-26T19:32:51.530Z,23.63
2019-05-26T19:34:53.104Z,23.65
2019-05-26T19:36:54.704Z,23.71
2019-05-26T19:38:56.393Z,23.74
2019-05-26T19:40:58.446Z,23.76
2019-05-26T19:43:00.121Z,23.76
2019-05-26T19:45:01.839Z,23.77
2019-05-26T19:47:03.462Z,23.76
2019-05-26T19:49:05.134Z,23.77
2019-05-26T19:51:06.974Z,23.74
2019-05-26T19:53:08.768Z,23.74
2019-05-26T19:55:10.536Z,24.02
2019-05-26T19:57:12.170Z,23.93
2019-05-26T19:59:13.858Z,23.33
2019-05-26T20:01:15.510Z,22.94
2019-05-26T20:03:17.326Z,22.76
2019-05-26T20:05:19.007Z,22.61
2019-05-26T20:07:20.673Z,23.11
2019-05-26T20:09:22.310Z,23.51
2019-05-26T20:11:24.040Z,23.68
2019-05-26T20:13:25.683Z,23.77
2019-05-26T20:15:27.543Z,23.78
2019-05-26T20:17:29.799Z,23.80
2019-05-26T20:19:31.834Z,23.86
2019-05-26T20:21:33.484Z,23.88
2019-05-26T20:23:35.441Z,23.89
2019-05-26T20:25:37.085Z,23.87
2019-05-26T20:27:38.772Z,23.90
2019-05-26T20:29:40.380Z,23.81
2019-05-26T20:31:42.011Z,23.86
2019-05-26T20:33:43.771Z,23.97
2019-05-26T20:35:45.450Z,24.01
2019-05-26T20:37:47.078Z,24.01
2019-05-26T20:39:48.893Z,23.95
2019-05-26T20:41:50.572Z,23.93
2019-05-26T20:43:52.201Z,23.93
2019-05-26T20:45:53.875Z,23.87
2019-05-26T20:47:55.458Z,23.89
2019-05-26T20:49:57.082Z,23.91
2019-05-26T20:51:58.714Z,23.91
2019-05-26T20:54:00.405Z,23.95
2019-05-26T20:56:02.071Z,23.99
2019-05-26T20:58:04.474Z,24.02
2019-05-26T21:00:06.353Z,24.01
2019-05-26T21:02:08.127Z,24.01
2019-05-26T21:04:09.856Z,24.04
2019-05-26T21:06:11.676Z,24.03
2019-05-26T21:08:13.450Z,24.01
2019-05-26T21:10:15.116Z,24.02
2019-05-26T21:12:16.743Z,24.02
2019-05-26T21:14:18.366Z,24.06
2019-05-26T21:16:19.962Z,23.97
2019-05-26T21:18:21.725Z,23.96
2019-05-26T21:20:23.364Z,23.97
2019-05-26T21:22:25.428Z,23.93
2019-05-26T21:24:27.152Z,23.90
2019-05-26T21:26:28.786Z,23.94
2019-05-26T21:28:30.418Z,23.90
2019-05-26T21:30:32.180Z,23.91
2019-05-26T21:32:33.949Z,23.94
2019-05-26T21:34:35.623Z,23.93
2019-05-26T21:36:37.261Z,23.90
2019-05-26T21:38:38.945Z,23.89
2019-05-26T21:40:40.614Z,23.88
2019-05-26T21:42:42.186Z,23.92
2019-05-26T21:44:43.814Z,23.93
2019-05-26T21:46:45.442Z,23.76
2019-05-26T21:48:47.818Z,23.26
2019-05-26T21:50:49.491Z,23.20
2019-05-26T21:52:51.129Z,23.55
2019-05-26T21:54:52.806Z,23.75
2019-05-26T21:56:54.854Z,23.90
2019-05-26T21:58:56.493Z,23.96
2019-05-26T22:00:58.945Z,23.98
2019-05-26T22:03:00.586Z,23.79
2019-05-26T22:05:02.370Z,24.06
2019-05-26T22:07:04.353Z,24.04
2019-05-26T22:09:06.137Z,24.05
2019-05-26T22:11:07.800Z,24.05
2019-05-26T22:13:09.578Z,24.02
2019-05-26T22:15:11.257Z,23.98
2019-05-26T22:17:12.926Z,23.98
2019-05-26T22:19:14.531Z,23.95
2019-05-26T22:21:16.204Z,23.96
2019-05-26T22:23:17.951Z,23.95
2019-05-26T22:25:19.646Z,23.96
2019-05-26T22:27:21.270Z,23.98
2019-05-26T22:29:22.903Z,23.91
2019-05-26T22:31:24.642Z,23.70
2019-05-26T22:33:26.294Z,23.92
2019-05-26T22:35:27.922Z,23.95
2019-05-26T22:37:29.499Z,23.98
2019-05-26T22:39:31.135Z,23.97
2019-05-26T22:41:32.734Z,23.97
2019-05-26T22:43:34.409Z,23.98
2019-05-26T22:45:36.261Z,23.97
2019-05-26T22:47:37.932Z,23.95
2019-05-26T22:49:39.526Z,23.98
2019-05-26T22:51:41.186Z,24.00
2019-05-26T22:53:43.583Z,24.05
2019-05-26T22:55:45.204Z,24.02
2019-05-26T22:57:47.233Z,23.98
2019-05-26T22:59:48.834Z,24.04
2019-05-26T23:01:50.471Z,24.05
2019-05-26T23:03:52.141Z,24.06
2019-05-26T23:05:53.766Z,24.03
2019-05-26T23:07:55.408Z,24.07
2019-05-26T23:09:57.041Z,24.02
2019-05-26T23:11:58.699Z,24.04
2019-05-26T23:14:00.515Z,23.99
2019-05-26T23:16:02.146Z,24.04
2019-05-26T23:18:04.015Z,23.95
2019-05-26T23:20:05.852Z,23.96
2019-05-26T23:22:07.499Z,23.97
2019-05-26T23:24:09.342Z,23.95
2019-05-26T23:26:10.991Z,24.00
2019-05-26T23:28:12.567Z,23.99
2019-05-26T23:30:14.214Z,24.05
2019-05-26T23:32:15.855Z,24.06
2019-05-26T23:34:17.479Z,24.08
2019-05-26T23:36:19.142Z,24.08
2019-05-26T23:38:20.799Z,24.05
2019-05-26T23:40:22.459Z,24.02
2019-05-26T23:42:24.094Z,23.96
2019-05-26T23:44:25.743Z,23.48
2019-05-26T23:46:27.370Z,23.74
2019-05-26T23:48:28.994Z,23.88
2019-05-26T23:50:30.701Z,23.93
2019-05-26T23:52:32.329Z,23.96
2019-05-26T23:54:33.987Z,23.96
2019-05-26T23:56:35.679Z,24.07
2019-05-26T23:58:37.447Z,24.09
